createdAt,value
2022-08-17T00:00:02.755Z,17.92
2022-08-17T00:01:02.830Z,17.92
2022-08-17T00:02:07.606Z,18.02
2022-08-17T00:03:03.743Z,17.95
2022-08-17T00:04:02.738Z,17.99
2022-08-17T00:05:02.832Z,17.92
2022-08-17T00:06:02.729Z,17.95
2022-08-17T00:07:02.719Z,17.81
2022-08-17T00:08:02.729Z,17.84
2022-08-17T00:09:02.698Z,17.91
2022-08-17T00:10:02.696Z,17.79
2022-08-17T00:11:02.684Z,17.88
2022-08-17T00:12:03.909Z,17.76
2022-08-17T00:13:03.704Z,18.00
2022-08-17T00:14:03.671Z,17.97
2022-08-17T00:15:02.656Z,17.89
2022-08-17T00:16:02.660Z,17.87
2022-08-17T00:17:02.659Z,17.95
2022-08-17T00:18:02.651Z,17.88
2022-08-17T00:19:08.309Z,17.91
2022-08-17T00:20:03.660Z,17.78
2022-08-17T00:21:02.611Z,17.87
2022-08-17T00:22:34.266Z,17.88
2022-08-17T00:23:03.610Z,17.87
2022-08-17T00:24:02.590Z,17.78
2022-08-17T00:25:02.617Z,17.84
2022-08-17T00:26:02.591Z,17.71
2022-08-17T00:27:02.580Z,17.81
2022-08-17T00:28:02.571Z,17.76
2022-08-17T00:29:02.564Z,17.76
2022-08-17T00:30:02.562Z,17.82
2022-08-17T00:31:02.566Z,17.78
2022-08-17T00:33:14.307Z,17.78
2022-08-17T00:33:16.082Z,17.71
2022-08-17T00:34:03.522Z,17.70
2022-08-17T00:35:02.522Z,17.67
2022-08-17T00:36:02.530Z,17.66
2022-08-17T00:37:02.498Z,17.67
2022-08-17T00:38:02.497Z,17.51
2022-08-17T00:39:02.494Z,17.59
2022-08-17T00:40:02.557Z,17.57
2022-08-17T00:41:02.510Z,17.53
2022-08-17T00:42:02.462Z,17.50
2022-08-17T00:43:02.462Z,17.47
2022-08-17T00:44:02.458Z,17.43
2022-08-17T00:45:02.542Z,17.35
2022-08-17T00:46:02.439Z,17.41
2022-08-17T00:47:02.441Z,17.44
2022-08-17T00:48:02.433Z,17.32
2022-08-17T00:49:02.412Z,17.30
2022-08-17T00:50:02.414Z,17.26
2022-08-17T00:51:02.410Z,17.29
2022-08-17T00:52:02.397Z,17.26
2022-08-17T00:53:03.397Z,17.23
2022-08-17T00:54:02.369Z,17.25
2022-08-17T00:55:03.375Z,17.30
2022-08-17T00:56:02.371Z,17.32
2022-08-17T00:57:02.360Z,17.26
2022-08-17T00:58:02.351Z,17.29
2022-08-17T00:59:02.345Z,17.28
2022-08-17T01:00:03.765Z,17.22
2022-08-17T01:01:02.404Z,17.26
2022-08-17T01:02:02.325Z,17.26
2022-08-17T01:03:02.336Z,17.26
2022-08-17T01:04:02.311Z,17.30
2022-08-17T01:05:02.306Z,17.26
2022-08-17T01:06:02.310Z,17.38
2022-08-17T01:07:02.281Z,17.40
2022-08-17T01:08:02.281Z,17.26
2022-08-17T01:09:02.276Z,17.25
2022-08-17T01:10:02.262Z,17.15
2022-08-17T01:11:02.349Z,17.18
2022-08-17T01:12:02.253Z,17.20
2022-08-17T01:13:02.242Z,17.22
2022-08-17T01:14:02.248Z,17.23
2022-08-17T01:15:02.233Z,17.14
2022-08-17T01:16:02.216Z,17.00
2022-08-17T01:17:03.209Z,17.14
2022-08-17T01:18:02.200Z,17.08
2022-08-17T01:19:02.212Z,17.07
2022-08-17T01:20:02.190Z,17.18
2022-08-17T01:21:02.180Z,17.11
2022-08-17T01:22:02.180Z,17.15
2022-08-17T01:23:02.169Z,17.15
2022-08-17T01:24:02.246Z,17.11
2022-08-17T01:25:02.157Z,17.15
2022-08-17T01:26:02.157Z,17.17
2022-08-17T01:27:02.140Z,17.15
2022-08-17T01:28:02.136Z,17.17
2022-08-17T01:29:02.148Z,17.18
2022-08-17T01:30:02.164Z,17.18
2022-08-17T01:31:02.128Z,17.18
2022-08-17T01:32:02.108Z,17.03
2022-08-17T01:33:02.100Z,17.06
2022-08-17T01:34:02.084Z,17.07
2022-08-17T01:35:02.089Z,17.03
2022-08-17T01:36:02.093Z,17.06
2022-08-17T01:37:02.073Z,17.10
2022-08-17T01:38:02.068Z,17.00
2022-08-17T01:39:02.061Z,16.98
2022-08-17T01:40:02.143Z,16.98
2022-08-17T01:41:02.038Z,16.93
2022-08-17T01:42:02.049Z,16.92
2022-08-17T01:43:02.022Z,17.04
2022-08-17T01:44:02.019Z,16.96
2022-08-17T01:45:02.004Z,16.96
2022-08-17T01:46:03.288Z,16.99
2022-08-17T01:47:02.001Z,17.08
2022-08-17T01:48:01.993Z,17.04
2022-08-17T01:49:01.983Z,17.03
2022-08-17T01:50:01.980Z,17.04
2022-08-17T01:51:01.969Z,16.95
2022-08-17T01:52:01.950Z,17.04
2022-08-17T01:53:02.951Z,16.95
2022-08-17T01:54:01.986Z,17.04
2022-08-17T01:55:01.939Z,17.00
2022-08-17T01:56:01.935Z,17.10
2022-08-17T01:57:01.939Z,17.06
2022-08-17T01:58:02.206Z,17.03
2022-08-17T01:59:01.914Z,17.06
2022-08-17T02:00:01.906Z,17.08
2022-08-17T02:01:02.004Z,17.22
2022-08-17T02:02:01.910Z,17.17
2022-08-17T02:03:01.878Z,17.10
2022-08-17T02:04:02.060Z,17.04
2022-08-17T02:05:01.862Z,17.11
2022-08-17T02:06:01.863Z,17.10
2022-08-17T02:07:01.863Z,17.07
2022-08-17T02:08:01.846Z,17.15
2022-08-17T02:09:03.828Z,17.07
2022-08-17T02:10:01.821Z,17.18
2022-08-17T02:11:01.827Z,17.18
2022-08-17T02:12:38.124Z,17.10
2022-08-17T02:13:02.821Z,17.17
2022-08-17T02:14:02.922Z,17.14
2022-08-17T02:15:01.789Z,17.20
2022-08-17T02:16:01.774Z,17.33
2022-08-17T02:17:01.778Z,17.32
2022-08-17T02:18:01.782Z,17.08
2022-08-17T02:19:01.765Z,17.20
2022-08-17T02:20:01.756Z,17.29
2022-08-17T02:21:01.746Z,17.30
2022-08-17T02:22:01.738Z,17.23
2022-08-17T02:23:01.755Z,17.15
2022-08-17T02:24:01.721Z,17.25
2022-08-17T02:25:02.379Z,17.29
2022-08-17T02:26:02.706Z,17.14
2022-08-17T02:27:01.695Z,17.18
2022-08-17T02:28:02.713Z,17.14
2022-08-17T02:29:01.677Z,17.00
2022-08-17T02:30:01.695Z,16.90
2022-08-17T02:31:03.186Z,17.03
2022-08-17T02:32:02.657Z,16.92
2022-08-17T02:33:04.157Z,16.95
2022-08-17T02:34:03.597Z,17.08
2022-08-17T02:35:01.639Z,17.08
2022-08-17T02:36:02.635Z,17.13
2022-08-17T02:37:01.629Z,17.04
2022-08-17T02:38:01.612Z,17.03
2022-08-17T02:39:01.636Z,17.00
2022-08-17T02:40:01.651Z,16.92
2022-08-17T02:41:01.608Z,16.93
2022-08-17T02:42:01.586Z,16.93
2022-08-17T02:43:01.589Z,16.85
2022-08-17T02:44:01.579Z,16.81
2022-08-17T02:45:01.591Z,16.75
2022-08-17T02:46:01.568Z,16.63
2022-08-17T02:47:01.565Z,16.62
2022-08-17T02:48:01.544Z,16.59
2022-08-17T02:49:01.546Z,16.58
2022-08-17T02:50:01.547Z,16.55
2022-08-17T02:51:01.532Z,16.50
2022-08-17T02:52:01.531Z,16.55
2022-08-17T02:53:02.860Z,16.53
2022-08-17T02:54:38.951Z,16.33
2022-08-17T02:55:02.508Z,16.52
2022-08-17T02:56:01.483Z,16.50
2022-08-17T02:57:01.508Z,16.52
2022-08-17T02:58:01.494Z,16.60
2022-08-17T02:59:01.480Z,16.58
2022-08-17T03:00:01.459Z,16.68
2022-08-17T03:01:01.475Z,16.67
2022-08-17T03:02:01.564Z,16.59
2022-08-17T03:03:01.447Z,16.65
2022-08-17T03:04:01.438Z,16.71
2022-08-17T03:05:01.433Z,16.70
2022-08-17T03:06:01.429Z,16.60
2022-08-17T03:07:01.435Z,16.62
2022-08-17T03:08:01.408Z,16.53
2022-08-17T03:09:01.403Z,16.50
2022-08-17T03:10:01.391Z,16.45
2022-08-17T03:11:01.376Z,16.48
2022-08-17T03:12:01.382Z,16.49
2022-08-17T03:13:01.399Z,16.40
2022-08-17T03:14:01.366Z,16.40
2022-08-17T03:15:01.367Z,16.20
2022-08-17T03:16:01.364Z,16.20
2022-08-17T03:17:01.343Z,16.22
2022-08-17T03:18:01.354Z,16.20
2022-08-17T03:19:01.342Z,16.16
2022-08-17T03:20:01.324Z,16.16
2022-08-17T03:21:01.317Z,16.15
2022-08-17T03:22:01.314Z,16.11
2022-08-17T03:23:03.129Z,16.14
2022-08-17T03:24:01.303Z,16.07
2022-08-17T03:25:02.285Z,16.12
2022-08-17T03:26:01.294Z,16.04
2022-08-17T03:27:01.271Z,16.11
2022-08-17T03:28:01.271Z,15.97
2022-08-17T03:29:01.268Z,16.03
2022-08-17T03:30:01.255Z,16.07
2022-08-17T03:31:01.268Z,16.07
2022-08-17T03:32:01.243Z,16.01
2022-08-17T03:33:01.227Z,15.96
2022-08-17T03:34:01.231Z,16.00
2022-08-17T03:35:01.229Z,15.97
2022-08-17T03:36:01.235Z,15.94
2022-08-17T03:37:01.206Z,15.94
2022-08-17T03:38:01.401Z,15.99
2022-08-17T03:39:01.194Z,16.00
2022-08-17T03:40:01.222Z,15.92
2022-08-17T03:41:02.201Z,15.97
2022-08-17T03:42:01.176Z,15.96
2022-08-17T03:43:01.167Z,15.99
2022-08-17T03:44:01.161Z,15.94
2022-08-17T03:45:01.158Z,15.96
2022-08-17T03:46:01.156Z,15.94
2022-08-17T03:47:01.142Z,15.92
2022-08-17T03:48:01.119Z,16.01
2022-08-17T03:49:01.124Z,16.03
2022-08-17T03:50:01.107Z,15.99
2022-08-17T03:51:01.114Z,15.99
2022-08-17T03:52:01.151Z,15.97
2022-08-17T03:53:01.100Z,15.97
2022-08-17T03:54:01.089Z,15.94
2022-08-17T03:55:01.088Z,16.03
2022-08-17T03:56:01.071Z,16.06
2022-08-17T03:57:01.071Z,15.92
2022-08-17T03:58:01.059Z,16.06
2022-08-17T03:59:01.055Z,16.15
2022-08-17T04:00:01.040Z,16.16
2022-08-17T04:01:01.128Z,16.11
2022-08-17T04:02:01.030Z,16.20
2022-08-17T04:03:01.028Z,16.18
2022-08-17T04:04:01.012Z,16.16
2022-08-17T04:05:01.010Z,16.20
2022-08-17T04:06:01.005Z,16.26
2022-08-17T04:07:00.992Z,16.38
2022-08-17T04:08:00.994Z,16.35
2022-08-17T04:09:00.987Z,16.41
2022-08-17T04:10:00.978Z,16.42
2022-08-17T04:11:00.962Z,16.37
2022-08-17T04:12:02.325Z,16.30
2022-08-17T04:13:00.956Z,16.41
2022-08-17T04:14:00.963Z,16.40
2022-08-17T04:15:00.936Z,16.31
2022-08-17T04:16:00.914Z,16.37
2022-08-17T04:17:00.928Z,16.26
2022-08-17T04:18:00.912Z,16.27
2022-08-17T04:19:00.904Z,16.15
2022-08-17T04:20:00.902Z,16.16
2022-08-17T04:21:00.883Z,16.18
2022-08-17T04:22:00.907Z,16.26
2022-08-17T04:23:00.879Z,16.26
2022-08-17T04:24:00.855Z,16.25
2022-08-17T04:25:00.886Z,16.22
2022-08-17T04:26:00.848Z,16.14
2022-08-17T04:27:00.847Z,16.18
2022-08-17T04:28:00.843Z,16.22
2022-08-17T04:29:00.827Z,16.27
2022-08-17T04:30:00.847Z,16.35
2022-08-17T04:31:00.815Z,16.25
2022-08-17T04:32:00.811Z,16.26
2022-08-17T04:33:06.271Z,16.31
2022-08-17T04:34:01.792Z,16.23
2022-08-17T04:35:00.787Z,16.20
2022-08-17T04:36:00.787Z,16.26
2022-08-17T04:37:00.767Z,16.26
2022-08-17T04:38:00.763Z,16.31
2022-08-17T04:39:00.743Z,16.27
2022-08-17T04:40:03.822Z,16.15
2022-08-17T04:41:01.755Z,16.33
2022-08-17T04:42:00.728Z,16.33
2022-08-17T04:43:01.047Z,16.37
2022-08-17T04:44:00.710Z,16.35
2022-08-17T04:45:00.707Z,16.50
2022-08-17T04:46:00.710Z,16.38
2022-08-17T04:47:00.690Z,16.38
2022-08-17T04:48:00.692Z,16.41
2022-08-17T04:49:00.678Z,16.49
2022-08-17T04:50:00.672Z,16.45
2022-08-17T04:51:00.687Z,16.56
2022-08-17T04:52:04.351Z,16.45
2022-08-17T04:53:01.878Z,16.55
2022-08-17T04:54:00.638Z,16.60
2022-08-17T04:55:00.627Z,16.60
2022-08-17T04:56:00.642Z,16.62
2022-08-17T04:57:00.614Z,16.67
2022-08-17T04:58:00.611Z,16.65
2022-08-17T04:59:00.603Z,16.75
2022-08-17T05:00:00.591Z,16.78
2022-08-17T05:01:00.641Z,16.81
2022-08-17T05:02:00.607Z,16.92
2022-08-17T05:03:00.567Z,16.88
2022-08-17T05:04:00.563Z,17.00
2022-08-17T05:05:00.555Z,17.03
2022-08-17T05:06:00.555Z,17.06
2022-08-17T05:07:00.553Z,17.17
2022-08-17T05:08:00.533Z,17.23
2022-08-17T05:09:00.527Z,17.30
2022-08-17T05:10:00.515Z,17.23
2022-08-17T05:11:00.522Z,17.30
2022-08-17T05:12:00.526Z,17.54
2022-08-17T05:13:00.503Z,17.51
2022-08-17T05:14:00.494Z,17.50
2022-08-17T05:15:00.486Z,17.71
2022-08-17T05:16:00.474Z,17.63
2022-08-17T05:17:00.470Z,17.67
2022-08-17T05:18:00.492Z,17.76
2022-08-17T05:19:00.454Z,17.89
2022-08-17T05:20:00.451Z,17.84
2022-08-17T05:21:00.443Z,17.91
2022-08-17T05:22:00.431Z,17.87
2022-08-17T05:23:00.434Z,17.94
2022-08-17T05:24:00.442Z,17.92
2022-08-17T05:25:02.657Z,17.97
2022-08-17T05:26:00.406Z,17.91
2022-08-17T05:27:06.063Z,18.03
2022-08-17T05:28:02.391Z,18.04
2022-08-17T05:29:02.665Z,17.95
2022-08-17T05:30:00.374Z,18.06
2022-08-17T05:31:00.367Z,18.12
2022-08-17T05:32:00.363Z,18.06
2022-08-17T05:33:01.360Z,18.18
2022-08-17T05:34:00.372Z,18.22
2022-08-17T05:35:00.611Z,18.27
2022-08-17T05:36:00.355Z,18.25
2022-08-17T05:37:00.326Z,18.33
2022-08-17T05:38:00.323Z,18.29
2022-08-17T05:39:00.310Z,18.31
2022-08-17T05:40:00.420Z,18.39
2022-08-17T05:41:00.310Z,18.31
2022-08-17T05:42:00.295Z,18.42
2022-08-17T05:43:00.283Z,18.43
2022-08-17T05:44:00.294Z,18.39
2022-08-17T05:45:01.274Z,18.43
2022-08-17T05:46:00.264Z,18.37
2022-08-17T05:47:00.259Z,18.22
2022-08-17T05:48:00.242Z,18.25
2022-08-17T05:49:00.246Z,18.39
2022-08-17T05:50:00.238Z,18.39
2022-08-17T05:51:00.229Z,18.44
2022-08-17T05:52:00.235Z,18.43
2022-08-17T05:53:00.214Z,18.37
2022-08-17T05:54:00.211Z,18.39
2022-08-17T05:55:00.203Z,18.22
2022-08-17T05:56:00.187Z,18.24
2022-08-17T05:57:01.218Z,18.25
2022-08-17T05:58:00.253Z,18.28
2022-08-17T05:59:00.258Z,18.37
2022-08-17T06:00:00.208Z,18.39
2022-08-17T06:01:00.214Z,18.39
2022-08-17T06:02:00.167Z,18.37
2022-08-17T06:03:00.166Z,18.50
2022-08-17T06:04:00.147Z,18.43
2022-08-17T06:05:00.146Z,18.55
2022-08-17T06:06:00.137Z,18.64
2022-08-17T06:07:00.135Z,18.83
2022-08-17T06:08:00.141Z,18.94
2022-08-17T06:09:00.118Z,18.99
2022-08-17T06:10:00.121Z,19.11
2022-08-17T06:11:00.105Z,19.18
2022-08-17T06:12:00.144Z,19.28
2022-08-17T06:13:00.101Z,19.31
2022-08-17T06:14:00.101Z,19.29
2022-08-17T06:15:00.077Z,19.40
2022-08-17T06:16:00.061Z,19.58
2022-08-17T06:17:00.059Z,19.61
2022-08-17T06:18:00.073Z,19.72
2022-08-17T06:19:00.038Z,19.80
2022-08-17T06:20:00.039Z,19.95
2022-08-17T06:21:00.037Z,20.06
2022-08-17T06:22:00.021Z,20.10
2022-08-17T06:23:00.045Z,20.27
2022-08-17T06:24:00.031Z,20.42
2022-08-17T06:25:00.005Z,20.58
2022-08-17T06:26:00.003Z,20.79
2022-08-17T06:26:59.990Z,20.83
2022-08-17T06:28:00.004Z,21.13
2022-08-17T06:28:59.989Z,21.21
2022-08-17T06:29:59.970Z,21.41
2022-08-17T06:31:01.407Z,21.59
2022-08-17T06:31:59.963Z,21.66
2022-08-17T06:32:59.964Z,21.85
2022-08-17T06:33:59.948Z,22.04
2022-08-17T06:34:59.940Z,22.27
2022-08-17T06:35:59.937Z,22.31
2022-08-17T06:36:59.928Z,22.38
2022-08-17T06:37:59.941Z,22.37
2022-08-17T06:38:59.913Z,22.32
2022-08-17T06:39:59.965Z,22.43
2022-08-17T06:41:00.027Z,22.34
2022-08-17T06:41:59.888Z,22.41
2022-08-17T06:43:06.768Z,22.49
2022-08-17T06:44:00.889Z,22.28
2022-08-17T06:44:59.877Z,22.14
2022-08-17T06:45:59.872Z,21.91
2022-08-17T06:46:59.869Z,21.85
2022-08-17T06:47:59.879Z,21.81
2022-08-17T06:48:59.845Z,21.75
2022-08-17T06:49:59.841Z,21.82
2022-08-17T06:50:59.862Z,21.94
2022-08-17T06:51:59.821Z,21.97
2022-08-17T06:53:00.089Z,22.04
2022-08-17T06:53:59.818Z,22.20
2022-08-17T06:54:59.813Z,22.07
2022-08-17T06:55:59.809Z,22.20
2022-08-17T06:56:59.812Z,22.19
2022-08-17T06:57:59.795Z,22.28
2022-08-17T06:58:59.786Z,22.31
2022-08-17T06:59:59.784Z,22.49
2022-08-17T07:00:59.906Z,22.57
2022-08-17T07:01:59.791Z,22.69
2022-08-17T07:02:59.787Z,22.97
2022-08-17T07:03:59.756Z,22.99
2022-08-17T07:05:00.745Z,23.08
2022-08-17T07:05:59.736Z,23.14
2022-08-17T07:06:59.728Z,23.12
2022-08-17T07:07:59.745Z,23.11
2022-08-17T07:08:59.961Z,23.15
2022-08-17T07:09:59.709Z,23.19
2022-08-17T07:10:59.692Z,23.34
2022-08-17T07:12:00.689Z,23.38
2022-08-17T07:12:59.685Z,23.46
2022-08-17T07:13:59.688Z,23.46
2022-08-17T07:14:59.675Z,23.46
2022-08-17T07:15:59.661Z,23.35
2022-08-17T07:16:59.660Z,23.34
2022-08-17T07:17:59.974Z,23.38
2022-08-17T07:18:59.642Z,23.43
2022-08-17T07:19:59.632Z,23.42
2022-08-17T07:20:59.625Z,23.32
2022-08-17T07:21:59.610Z,23.39
2022-08-17T07:23:00.604Z,23.49
2022-08-17T07:23:59.609Z,23.38
2022-08-17T07:24:59.597Z,23.42
2022-08-17T07:25:59.588Z,23.46
2022-08-17T07:26:59.585Z,23.50
2022-08-17T07:27:59.590Z,23.46
2022-08-17T07:28:59.585Z,23.60
2022-08-17T07:29:59.561Z,23.71
2022-08-17T07:30:59.557Z,23.83
2022-08-17T07:31:59.544Z,23.92
2022-08-17T07:32:59.547Z,23.97
2022-08-17T07:33:59.540Z,23.97
2022-08-17T07:34:59.540Z,24.02
2022-08-17T07:35:59.521Z,24.04
2022-08-17T07:36:59.500Z,24.00
2022-08-17T07:37:59.499Z,24.19
2022-08-17T07:38:59.500Z,24.17
2022-08-17T07:40:15.132Z,24.12
2022-08-17T07:41:00.488Z,24.16
2022-08-17T07:41:59.491Z,24.24
2022-08-17T07:42:59.472Z,24.34
2022-08-17T07:43:59.485Z,24.38
2022-08-17T07:44:59.508Z,24.59
2022-08-17T07:45:59.465Z,24.73
2022-08-17T07:46:59.448Z,24.87
2022-08-17T07:47:59.457Z,24.92
2022-08-17T07:48:59.460Z,25.05
2022-08-17T07:49:59.425Z,25.19
2022-08-17T07:50:59.425Z,25.25
2022-08-17T07:51:59.973Z,25.37
2022-08-17T07:53:00.410Z,25.38
2022-08-17T07:54:13.210Z,25.46
2022-08-17T07:55:01.392Z,25.57
2022-08-17T07:55:59.392Z,25.56
2022-08-17T07:56:59.392Z,25.64
2022-08-17T07:57:59.382Z,25.80
2022-08-17T07:58:59.364Z,25.89
2022-08-17T07:59:59.364Z,25.98
2022-08-17T08:00:59.343Z,26.11
2022-08-17T08:01:59.374Z,26.35
2022-08-17T08:02:59.340Z,26.47
2022-08-17T08:03:59.326Z,26.61
2022-08-17T08:05:00.973Z,26.73
2022-08-17T08:06:00.331Z,26.89
2022-08-17T08:06:59.305Z,26.91
2022-08-17T08:07:59.325Z,27.02
2022-08-17T08:08:59.300Z,26.96
2022-08-17T08:09:59.280Z,27.10
2022-08-17T08:11:00.292Z,27.13
2022-08-17T08:11:59.280Z,27.28
2022-08-17T08:12:59.283Z,27.47
2022-08-17T08:13:59.331Z,27.70
2022-08-17T08:14:59.261Z,27.79
2022-08-17T08:15:59.255Z,27.94
2022-08-17T08:16:59.249Z,28.07
2022-08-17T08:17:59.228Z,28.19
2022-08-17T08:18:59.243Z,28.28
2022-08-17T08:19:59.227Z,28.17
2022-08-17T08:20:59.240Z,28.33
2022-08-17T08:21:59.225Z,28.48
2022-08-17T08:22:59.200Z,28.54
2022-08-17T08:23:59.204Z,28.73
2022-08-17T08:24:59.200Z,28.84
2022-08-17T08:25:59.196Z,29.00
2022-08-17T08:26:59.179Z,29.01
2022-08-17T08:27:59.341Z,28.81
2022-08-17T08:28:59.159Z,29.03
2022-08-17T08:29:59.178Z,29.29
2022-08-17T08:30:59.171Z,29.53
2022-08-17T08:31:59.156Z,29.52
2022-08-17T08:32:59.144Z,29.56
2022-08-17T08:34:00.141Z,29.45
2022-08-17T08:35:02.247Z,29.37
2022-08-17T08:35:59.131Z,29.40
2022-08-17T08:37:16.409Z,29.23
2022-08-17T08:38:00.104Z,29.18
2022-08-17T08:38:59.126Z,29.13
2022-08-17T08:39:59.172Z,29.13
2022-08-17T08:40:59.100Z,29.44
2022-08-17T08:41:59.089Z,29.75
2022-08-17T08:42:59.108Z,29.82
2022-08-17T08:43:59.164Z,29.65
2022-08-17T08:45:04.761Z,29.60
2022-08-17T08:45:59.057Z,30.03
2022-08-17T08:46:59.060Z,30.36
2022-08-17T08:48:02.402Z,30.78
2022-08-17T08:49:14.612Z,31.42
2022-08-17T08:50:03.859Z,31.93
2022-08-17T08:51:00.043Z,32.17
2022-08-17T08:51:59.019Z,31.92
2022-08-17T08:52:59.035Z,31.88
2022-08-17T08:53:59.029Z,32.36
2022-08-17T08:54:59.008Z,32.91
2022-08-17T08:55:59.020Z,33.10
2022-08-17T08:57:23.125Z,33.10
2022-08-17T08:58:00.986Z,33.26
2022-08-17T08:58:58.986Z,33.83
2022-08-17T08:59:58.980Z,34.42
2022-08-17T09:00:59.046Z,35.21
2022-08-17T09:01:58.965Z,35.63
2022-08-17T09:02:58.957Z,35.81
2022-08-17T09:04:17.869Z,35.36
2022-08-17T09:05:16.100Z,35.25
2022-08-17T09:06:00.941Z,35.11
2022-08-17T09:06:58.932Z,35.57
2022-08-17T09:07:58.923Z,35.84
2022-08-17T09:08:58.923Z,36.23
2022-08-17T09:09:59.545Z,36.43
2022-08-17T09:10:59.924Z,36.48
2022-08-17T09:12:01.886Z,36.48
2022-08-17T09:12:58.894Z,36.63
2022-08-17T09:13:58.895Z,36.83
2022-08-17T09:14:58.885Z,36.48
2022-08-17T09:15:58.887Z,36.29
2022-08-17T09:16:58.891Z,36.45
2022-08-17T09:18:28.390Z,35.79
2022-08-17T09:19:04.455Z,34.48
2022-08-17T09:19:58.856Z,34.54
2022-08-17T09:20:58.875Z,34.58
2022-08-17T09:21:58.855Z,33.83
2022-08-17T09:22:58.867Z,33.61
2022-08-17T09:23:58.843Z,33.68
2022-08-17T09:24:58.831Z,33.70
2022-08-17T09:25:58.819Z,33.86
2022-08-17T09:26:58.842Z,34.36
2022-08-17T09:28:00.718Z,34.42
2022-08-17T09:28:58.804Z,34.69
2022-08-17T09:29:58.811Z,34.45
2022-08-17T09:30:58.800Z,33.90
2022-08-17T09:31:58.779Z,34.31
2022-08-17T09:32:58.802Z,34.96
2022-08-17T09:33:58.779Z,35.08
2022-08-17T09:34:58.776Z,34.98
2022-08-17T09:35:58.767Z,34.84
2022-08-17T09:36:58.764Z,34.39
2022-08-17T09:37:59.763Z,34.22
2022-08-17T09:38:58.758Z,34.44
2022-08-17T09:39:58.811Z,34.70
2022-08-17T09:40:58.746Z,34.16
2022-08-17T09:41:58.735Z,34.35
2022-08-17T09:42:58.733Z,34.91
2022-08-17T09:43:58.723Z,35.29
2022-08-17T09:44:58.736Z,35.63
2022-08-17T09:45:58.719Z,35.01
2022-08-17T09:46:58.730Z,34.48
2022-08-17T09:47:58.703Z,34.45
2022-08-17T09:48:58.708Z,34.38
2022-08-17T09:49:58.728Z,34.02
2022-08-17T09:51:04.818Z,33.85
2022-08-17T09:51:58.690Z,33.80
2022-08-17T09:52:58.683Z,34.00
2022-08-17T09:54:14.808Z,33.78
2022-08-17T09:55:00.699Z,33.79
2022-08-17T09:55:58.671Z,34.51
2022-08-17T09:57:25.837Z,34.84
2022-08-17T09:58:00.655Z,34.79
2022-08-17T09:58:58.652Z,34.36
2022-08-17T09:59:58.657Z,33.71
2022-08-17T10:00:58.674Z,33.19
2022-08-17T10:01:58.639Z,33.31
2022-08-17T10:02:58.643Z,33.46
2022-08-17T10:03:58.630Z,33.70
2022-08-17T10:04:58.619Z,34.05
2022-08-17T10:05:58.648Z,34.23
2022-08-17T10:06:58.623Z,34.41
2022-08-17T10:07:58.619Z,34.39
2022-08-17T10:08:58.600Z,34.34
2022-08-17T10:09:58.585Z,34.38
2022-08-17T10:10:59.590Z,34.41
2022-08-17T10:11:58.574Z,34.42
2022-08-17T10:12:58.599Z,34.46
2022-08-17T10:13:59.757Z,34.61
2022-08-17T10:14:58.566Z,35.17
2022-08-17T10:15:58.559Z,35.32
2022-08-17T10:16:58.556Z,34.44
2022-08-17T10:17:58.571Z,33.73
2022-08-17T10:18:58.550Z,33.43
2022-08-17T10:19:58.530Z,33.76
2022-08-17T10:20:58.535Z,34.26
2022-08-17T10:22:01.026Z,35.08
2022-08-17T10:22:58.566Z,35.60
2022-08-17T10:23:58.518Z,34.84
2022-08-17T10:25:20.956Z,34.98
2022-08-17T10:25:59.535Z,35.45
2022-08-17T10:26:58.511Z,35.44
2022-08-17T10:27:58.517Z,35.44
2022-08-17T10:28:58.542Z,35.01
2022-08-17T10:29:58.490Z,35.79
2022-08-17T10:31:23.274Z,36.30
2022-08-17T10:32:00.491Z,35.66
2022-08-17T10:32:58.475Z,35.08
2022-08-17T10:33:58.489Z,34.24
2022-08-17T10:34:58.467Z,33.94
2022-08-17T10:35:58.446Z,33.19
2022-08-17T10:36:58.455Z,32.43
2022-08-17T10:37:58.446Z,32.13
2022-08-17T10:38:58.442Z,31.43
2022-08-17T10:39:58.500Z,31.24
2022-08-17T10:40:58.432Z,30.96
2022-08-17T10:41:58.427Z,30.84
2022-08-17T10:42:58.426Z,30.72
2022-08-17T10:44:39.421Z,30.52
2022-08-17T10:44:59.427Z,30.50
2022-08-17T10:46:10.703Z,30.40
2022-08-17T10:46:59.393Z,30.49
2022-08-17T10:48:02.770Z,30.34
2022-08-17T10:49:00.393Z,30.21
2022-08-17T10:49:58.385Z,30.08
2022-08-17T10:50:58.382Z,30.24
2022-08-17T10:51:58.447Z,30.08
2022-08-17T10:52:58.354Z,29.92
2022-08-17T10:53:58.356Z,29.90
2022-08-17T10:54:58.954Z,29.74
2022-08-17T10:55:58.345Z,29.70
2022-08-17T10:56:58.350Z,29.65
2022-08-17T10:57:58.360Z,29.62
2022-08-17T10:58:58.326Z,29.66
2022-08-17T10:59:58.322Z,29.62
2022-08-17T11:00:58.409Z,29.71
2022-08-17T11:01:58.332Z,29.74
2022-08-17T11:02:58.301Z,29.89
2022-08-17T11:03:58.290Z,29.84
2022-08-17T11:04:58.282Z,30.15
2022-08-17T11:05:58.288Z,30.18
2022-08-17T11:06:58.321Z,30.34
2022-08-17T11:07:58.282Z,30.23
2022-08-17T11:08:58.269Z,30.31
2022-08-17T11:09:58.257Z,30.21
2022-08-17T11:10:58.245Z,30.21
2022-08-17T11:11:58.254Z,30.11
2022-08-17T11:12:58.239Z,30.19
2022-08-17T11:13:58.229Z,30.27
2022-08-17T11:14:58.221Z,30.21
2022-08-17T11:16:00.616Z,30.34
2022-08-17T11:16:58.209Z,30.16
2022-08-17T11:17:58.227Z,30.26
2022-08-17T11:18:58.201Z,30.16
2022-08-17T11:19:58.192Z,30.33
2022-08-17T11:20:58.173Z,30.38
2022-08-17T11:21:58.174Z,30.45
2022-08-17T11:22:58.170Z,30.31
2022-08-17T11:23:58.164Z,30.11
2022-08-17T11:24:58.166Z,30.11
2022-08-17T11:25:58.157Z,30.19
2022-08-17T11:26:58.175Z,30.19
2022-08-17T11:27:58.138Z,30.26
2022-08-17T11:28:58.141Z,30.21
2022-08-17T11:30:01.862Z,30.31
2022-08-17T11:30:59.175Z,30.26
2022-08-17T11:31:58.106Z,30.27
2022-08-17T11:32:58.116Z,30.27
2022-08-17T11:33:58.100Z,30.09
2022-08-17T11:34:58.093Z,30.02
2022-08-17T11:35:58.089Z,29.77
2022-08-17T11:36:58.084Z,29.74
2022-08-17T11:37:58.080Z,29.79
2022-08-17T11:38:58.077Z,29.82
2022-08-17T11:39:58.122Z,29.60
2022-08-17T11:40:58.052Z,29.68
2022-08-17T11:41:58.036Z,29.59
2022-08-17T11:42:58.059Z,29.56
2022-08-17T11:43:58.035Z,29.53
2022-08-17T11:44:58.033Z,29.43
2022-08-17T11:45:58.024Z,29.22
2022-08-17T11:46:58.020Z,29.18
2022-08-17T11:48:26.048Z,29.19
2022-08-17T11:49:00.005Z,29.25
2022-08-17T11:49:58.001Z,29.33
2022-08-17T11:50:57.980Z,29.28
2022-08-17T11:51:57.989Z,29.20
2022-08-17T11:52:57.996Z,29.18
2022-08-17T11:54:21.480Z,29.16
2022-08-17T11:55:17.560Z,29.08
2022-08-17T11:55:59.962Z,29.08
2022-08-17T11:56:57.946Z,28.93
2022-08-17T11:57:57.949Z,28.97
2022-08-17T11:58:57.956Z,28.91
2022-08-17T11:59:58.638Z,28.85
2022-08-17T12:00:57.931Z,28.81
2022-08-17T12:01:57.924Z,28.65
2022-08-17T12:02:57.908Z,28.58
2022-08-17T12:03:57.918Z,28.46
2022-08-17T12:04:57.912Z,28.48
2022-08-17T12:05:57.898Z,28.43
2022-08-17T12:06:57.907Z,28.43
2022-08-17T12:07:57.888Z,28.32
2022-08-17T12:08:57.899Z,28.31
2022-08-17T12:09:57.876Z,28.32
2022-08-17T12:10:57.873Z,28.35
2022-08-17T12:12:12.763Z,28.40
2022-08-17T12:12:58.859Z,28.43
2022-08-17T12:13:57.862Z,28.51
2022-08-17T12:15:10.253Z,28.48
2022-08-17T12:15:59.838Z,28.47
2022-08-17T12:16:57.830Z,28.43
2022-08-17T12:17:58.221Z,28.54
2022-08-17T12:18:57.818Z,28.44
2022-08-17T12:19:57.827Z,28.29
2022-08-17T12:20:57.794Z,28.33
2022-08-17T12:21:57.816Z,28.32
2022-08-17T12:22:57.797Z,28.21
2022-08-17T12:23:57.804Z,28.22
2022-08-17T12:24:57.782Z,28.25
2022-08-17T12:25:57.769Z,28.22
2022-08-17T12:26:57.767Z,28.22
2022-08-17T12:28:06.352Z,28.23
2022-08-17T12:28:58.766Z,28.33
2022-08-17T12:29:57.742Z,28.40
2022-08-17T12:30:57.735Z,28.35
2022-08-17T12:31:57.743Z,28.40
2022-08-17T12:32:57.722Z,28.33
2022-08-17T12:33:57.716Z,28.33
2022-08-17T12:34:57.703Z,28.29
2022-08-17T12:35:59.635Z,28.41
2022-08-17T12:36:58.859Z,28.32
2022-08-17T12:37:57.691Z,28.36
2022-08-17T12:38:57.704Z,28.32
2022-08-17T12:39:57.749Z,28.33
2022-08-17T12:40:58.028Z,28.38
2022-08-17T12:42:02.164Z,28.31
2022-08-17T12:42:59.648Z,28.28
2022-08-17T12:43:57.667Z,28.36
2022-08-17T12:44:57.646Z,28.36
2022-08-17T12:45:57.637Z,28.43
2022-08-17T12:46:57.616Z,28.48
2022-08-17T12:47:57.614Z,28.43
2022-08-17T12:48:59.959Z,28.44
2022-08-17T12:49:57.603Z,28.46
2022-08-17T12:50:57.596Z,28.47
2022-08-17T12:51:57.589Z,28.53